Time;durP1;ratioP1;P1;durP2;ratioP2;P2;SDS_P1;SDS_P2;PMS_P1;PMS_P2;Temp;Humidity;BMP_temperature;BMP_pressure;BME280_temperature;BME280_humidity;BME280_pressure;Samples;Min_cycle;Max_cycle;Signal;HPM_P1;HPM_P2
2023/08/01 00:01:31;;;;;;;3.55;2.20;;;16.20;99.90;;;;;;5089200;28;20021;-45
2023/08/01 00:03:56;;;;;;;3.65;2.22;;;16.30;99.90;;;;;;5088589;28;20026;-44
2023/08/01 00:06:24;;;;;;;2.60;2.22;;;16.20;99.90;;;;;;5070760;28;20016;-43
2023/08/01 00:08:49;;;;;;;3.60;2.40;;;16.30;99.90;;;;;;5088921;28;20115;-43
2023/08/01 00:11:16;;;;;;;3.10;2.00;;;16.30;99.90;;;;;;5088996;28;20110;-48
2023/08/01 00:17:03;;;;;;;3.53;2.40;;;16.30;99.90;;;;;;5092918;28;20071;-44
2023/08/01 00:19:29;;;;;;;2.72;1.90;;;16.30;99.90;;;;;;5092953;28;20040;-46
2023/08/01 00:21:54;;;;;;;3.25;1.90;;;16.30;99.90;;;;;;5093111;28;20507;-44
2023/08/01 00:24:20;;;;;;;2.67;2.08;;;16.30;99.90;;;;;;5092700;28;20036;-44
2023/08/01 00:26:45;;;;;;;3.95;2.08;;;16.30;99.90;;;;;;5093021;28;20024;-44
2023/08/01 00:29:11;;;;;;;3.78;2.63;;;16.30;99.90;;;;;;5092896;28;20481;-45
2023/08/01 00:31:36;;;;;;;7.43;2.60;;;16.40;99.90;;;;;;5092737;28;20016;-44
2023/08/01 00:34:02;;;;;;;3.90;1.92;;;16.30;99.90;;;;;;5092018;28;20016;-44
2023/08/01 00:36:27;;;;;;;5.72;2.20;;;16.30;99.90;;;;;;5092732;28;20024;-43
2023/08/01 00:38:53;;;;;;;2.80;2.13;;;16.30;99.90;;;;;;5092679;28;20032;-43
2023/08/01 00:41:19;;;;;;;4.97;2.50;;;16.30;99.90;;;;;;5074355;28;20032;-43
2023/08/01 00:43:44;;;;;;;4.93;2.30;;;16.30;99.90;;;;;;5074031;28;20012;-44
2023/08/01 00:46:10;;;;;;;4.35;2.60;;;16.30;99.90;;;;;;5092414;28;20070;-43
2023/08/01 00:48:35;;;;;;;6.47;1.98;;;16.30;99.90;;;;;;5092620;28;20024;-43
2023/08/01 00:51:05;;;;;;;3.90;2.95;;;16.30;99.90;;;;;;5092496;28;20035;-43
2023/08/01 00:53:31;;;;;;;6.03;2.30;;;16.40;99.90;;;;;;5092521;28;20400;-43
2023/08/01 00:55:58;;;;;;;4.78;2.10;;;16.30;99.90;;;;;;5092185;28;20351;-45
2023/08/01 00:58:24;;;;;;;7.32;2.53;;;16.40;99.90;;;;;;5073977;28;20020;-46
2023/08/01 01:00:49;;;;;;;5.03;2.42;;;16.40;99.90;;;;;;5092634;28;20547;-45
2023/08/01 01:03:16;;;;;;;4.57;2.30;;;16.30;99.90;;;;;;5092133;28;20097;-45
2023/08/01 01:05:53;;;;;;;4.68;2.35;;;16.40;99.90;;;;;;5091813;28;20030;-44
2023/08/01 01:08:19;;;;;;;3.40;2.65;;;16.40;99.90;;;;;;5092152;28;20485;-46
2023/08/01 01:10:45;;;;;;;5.80;2.90;;;16.40;99.90;;;;;;5092095;28;20435;-43
2023/08/01 01:13:10;;;;;;;6.20;2.80;;;16.40;99.90;;;;;;5091434;28;20070;-43
2023/08/01 01:15:36;;;;;;;4.35;2.63;;;16.40;99.90;;;;;;5091816;28;20032;-44
2023/08/01 01:18:01;;;;;;;3.55;2.13;;;16.40;99.90;;;;;;5092020;28;20442;-42
2023/08/01 01:20:33;;;;;;;3.90;2.60;;;16.40;99.90;;;;;;5091912;28;20034;-44
2023/08/01 01:23:00;;;;;;;9.55;2.47;;;16.40;99.90;;;;;;5078732;28;20484;-46
2023/08/01 01:25:27;;;;;;;6.47;2.55;;;16.40;99.90;;;;;;5093918;28;20028;-45
2023/08/01 01:27:54;;;;;;;2.65;2.20;;;16.40;99.90;;;;;;5089906;28;20027;-43
2023/08/01 01:30:20;;;;;;;5.22;2.53;;;16.40;99.90;;;;;;5096361;28;20081;-43
2023/08/01 01:32:46;;;;;;;6.60;2.60;;;16.50;99.90;;;;;;5096235;28;20077;-43
2023/08/01 01:35:11;;;;;;;4.07;2.35;;;16.40;99.90;;;;;;5090953;28;20024;-44
2023/08/01 01:37:37;;;;;;;3.10;2.30;;;16.40;99.90;;;;;;5095350;28;20031;-46
2023/08/01 01:40:02;;;;;;;6.22;2.85;;;16.40;99.90;;;;;;5073821;28;20081;-43
2023/08/01 01:42:28;;;;;;;3.60;2.13;;;16.40;99.90;;;;;;5091312;28;20114;-43
2023/08/01 01:44:53;;;;;;;4.65;2.53;;;16.40;99.90;;;;;;5091113;28;20012;-45
2023/08/01 01:47:20;;;;;;;4.00;2.05;;;16.40;99.90;;;;;;5091463;28;20035;-44
2023/08/01 01:49:45;;;;;;;7.53;2.70;;;16.40;99.90;;;;;;5091311;28;20074;-44
2023/08/01 01:52:11;;;;;;;3.47;2.50;;;16.40;99.90;;;;;;5091287;28;20520;-44
2023/08/01 01:54:36;;;;;;;6.30;2.55;;;16.40;99.90;;;;;;5072635;28;20405;-44
2023/08/01 01:57:02;;;;;;;5.45;2.75;;;16.40;99.90;;;;;;5091025;28;20117;-43
2023/08/01 01:59:27;;;;;;;3.58;2.67;;;16.40;99.90;;;;;;5096593;28;20055;-44
2023/08/01 02:01:53;;;;;;;3.10;2.20;;;16.40;99.90;;;;;;5073031;28;20118;-44
2023/08/01 02:04:19;;;;;;;3.63;2.40;;;16.40;99.90;;;;;;5089135;28;20027;-45
2023/08/01 02:06:44;;;;;;;4.38;3.13;;;16.40;99.90;;;;;;5090387;28;20110;-44
2023/08/01 02:09:10;;;;;;;6.80;2.80;;;16.40;99.90;;;;;;5090637;28;20370;-43
2023/08/01 02:11:35;;;;;;;5.43;2.75;;;16.40;99.90;;;;;;5090446;28;20453;-46
2023/08/01 02:14:02;;;;;;;4.63;2.88;;;16.40;99.90;;;;;;5090323;28;20255;-44
2023/08/01 02:16:28;;;;;;;6.15;3.05;;;16.40;99.90;;;;;;5091067;28;20059;-46
2023/08/01 02:18:53;;;;;;;7.47;3.22;;;16.40;99.90;;;;;;5072600;28;20067;-44
2023/08/01 02:21:19;;;;;;;6.00;3.20;;;16.40;99.90;;;;;;5090660;28;20059;-44
2023/08/01 02:23:44;;;;;;;5.35;3.47;;;16.40;99.90;;;;;;5090497;28;20118;-44
2023/08/01 02:26:10;;;;;;;6.15;3.28;;;16.40;99.90;;;;;;5090566;28;20040;-43
2023/08/01 02:28:35;;;;;;;4.28;2.80;;;16.40;99.90;;;;;;5090708;28;20388;-44
2023/08/01 02:31:01;;;;;;;2.85;2.50;;;16.40;99.90;;;;;;5072233;28;20064;-44
2023/08/01 02:33:27;;;;;;;7.13;2.83;;;16.40;99.90;;;;;;5090078;28;20028;-44
2023/08/01 02:35:52;;;;;;;5.53;3.08;;;16.40;99.90;;;;;;5089969;28;20302;-46
2023/08/01 02:38:18;;;;;;;5.57;2.97;;;16.40;99.90;;;;;;5089867;28;20108;-43
2023/08/01 02:40:43;;;;;;;5.47;2.78;;;16.40;99.90;;;;;;5090059;28;20384;-44
2023/08/01 02:43:09;;;;;;;5.45;2.50;;;16.40;99.90;;;;;;5089884;28;20036;-44
2023/08/01 02:45:34;;;;;;;7.25;2.80;;;16.40;99.90;;;;;;5072227;28;20039;-44
2023/08/01 02:48:00;;;;;;;3.67;2.40;;;16.40;99.90;;;;;;5090410;28;20485;-44
2023/08/01 02:50:25;;;;;;;5.18;3.05;;;16.40;99.90;;;;;;5090272;28;20035;-44
2023/08/01 02:52:51;;;;;;;4.63;2.83;;;16.40;99.90;;;;;;5089902;28;20034;-45
2023/08/01 02:55:16;;;;;;;3.83;2.30;;;16.40;99.90;;;;;;5089573;28;20032;-44
2023/08/01 02:57:42;;;;;;;6.00;2.78;;;16.40;99.90;;;;;;5090115;28;20106;-44
2023/08/01 03:00:11;;;;;;;6.57;2.67;;;16.50;99.90;;;;;;5090266;28;20023;-44
2023/08/01 03:02:39;;;;;;;3.42;2.60;;;16.50;99.90;;;;;;5089966;28;20040;-44
2023/08/01 03:05:09;;;;;;;4.05;2.00;;;16.50;99.90;;;;;;5089676;28;20022;-44
2023/08/01 03:07:34;;;;;;;4.53;2.65;;;16.50;99.90;;;;;;5089862;28;20020;-44
2023/08/01 03:10:00;;;;;;;8.20;2.65;;;16.40;99.90;;;;;;5089763;28;20073;-44
2023/08/01 03:12:25;;;;;;;4.90;2.20;;;16.50;99.90;;;;;;5089532;28;20036;-44
2023/08/01 03:14:51;;;;;;;6.85;2.50;;;16.50;99.90;;;;;;5089535;28;20020;-43
2023/08/01 03:17:16;;;;;;;4.43;2.75;;;16.50;99.90;;;;;;5089694;28;20027;-43
2023/08/01 03:19:42;;;;;;;5.40;2.50;;;16.50;99.90;;;;;;5090000;28;20469;-43
2023/08/01 03:22:09;;;;;;;5.18;2.67;;;16.40;99.90;;;;;;5089679;28;20024;-44
2023/08/01 03:24:34;;;;;;;3.53;2.30;;;16.50;99.90;;;;;;5070706;28;20020;-44
2023/08/01 03:27:00;;;;;;;3.17;2.25;;;16.40;99.90;;;;;;5089531;28;20005;-44
2023/08/01 03:29:26;;;;;;;5.78;2.92;;;16.40;99.90;;;;;;5089498;28;20066;-44
2023/08/01 03:31:52;;;;;;;2.83;2.17;;;16.40;99.90;;;;;;5089439;28;20346;-44
2023/08/01 03:34:17;;;;;;;5.13;2.47;;;16.40;99.90;;;;;;5089240;28;20419;-43
2023/08/01 03:36:43;;;;;;;2.75;2.10;;;16.40;99.90;;;;;;5089496;28;20024;-43
2023/08/01 03:39:09;;;;;;;3.33;2.13;;;16.40;99.90;;;;;;5089321;28;20035;-44
2023/08/01 03:41:35;;;;;;;2.30;2.10;;;16.30;99.90;;;;;;5089427;28;20023;-44
2023/08/01 03:44:01;;;;;;;3.25;2.60;;;16.30;99.90;;;;;;5070775;28;20024;-44
2023/08/01 03:46:26;;;;;;;6.03;2.30;;;16.30;99.90;;;;;;5089628;28;20024;-44
2023/08/01 03:48:52;;;;;;;3.97;2.25;;;16.30;99.90;;;;;;5089319;28;20459;-43
2023/08/01 03:51:19;;;;;;;3.63;2.28;;;16.20;99.90;;;;;;5088304;28;20067;-43
2023/08/01 03:53:45;;;;;;;3.58;2.20;;;16.20;99.90;;;;;;5088834;28;20244;-43
2023/08/01 03:56:11;;;;;;;2.58;2.00;;;16.20;99.90;;;;;;5089139;28;20024;-43
2023/08/01 03:58:36;;;;;;;3.35;2.13;;;16.20;99.90;;;;;;5089083;28;20178;-43
2023/08/01 04:01:02;;;;;;;2.88;2.20;;;16.20;99.90;;;;;;5086822;28;20103;-45
2023/08/01 04:03:27;;;;;;;2.50;2.05;;;16.20;99.90;;;;;;5089205;28;20024;-43
2023/08/01 04:05:53;;;;;;;2.72;2.38;;;16.20;99.90;;;;;;5094329;28;20026;-44
2023/08/01 04:08:19;;;;;;;3.00;2.70;;;16.10;99.90;;;;;;5091668;28;20032;-44
2023/08/01 04:10:45;;;;;;;2.30;2.10;;;16.10;99.90;;;;;;5088779;28;20032;-44
2023/08/01 04:13:10;;;;;;;4.78;2.25;;;16.10;99.90;;;;;;5088905;28;20028;-48
2023/08/01 04:15:36;;;;;;;2.97;2.33;;;16.20;99.90;;;;;;5089046;28;20081;-43
2023/08/01 04:18:01;;;;;;;3.35;2.67;;;16.20;99.90;;;;;;5088948;28;20024;-45
2023/08/01 04:20:27;;;;;;;3.17;2.10;;;16.10;99.90;;;;;;5088856;28;20028;-43
2023/08/01 04:22:52;;;;;;;2.83;2.22;;;16.10;99.90;;;;;;5088830;28;20020;-43
2023/08/01 04:25:18;;;;;;;3.17;2.28;;;16.10;99.90;;;;;;5088587;28;20047;-44
2023/08/01 04:27:43;;;;;;;4.70;2.13;;;16.20;99.90;;;;;;5088802;28;20028;-45
2023/08/01 04:30:09;;;;;;;4.20;2.22;;;16.20;99.90;;;;;;5088644;28;20024;-45
2023/08/01 04:32:35;;;;;;;3.25;2.42;;;16.20;99.90;;;;;;5088527;28;20025;-46
2023/08/01 04:35:00;;;;;;;3.03;2.35;;;16.20;99.90;;;;;;5088232;28;20130;-45
2023/08/01 04:37:26;;;;;;;4.00;2.13;;;16.20;99.90;;;;;;5088902;28;20036;-43
2023/08/01 04:39:51;;;;;;;3.92;2.33;;;16.20;99.90;;;;;;5088820;28;20212;-46
2023/08/01 04:42:17;;;;;;;3.80;2.38;;;16.20;99.90;;;;;;5088597;28;20063;-46
2023/08/01 04:44:43;;;;;;;3.28;2.22;;;16.20;99.90;;;;;;5070268;28;20016;-45
2023/08/01 04:47:08;;;;;;;6.05;3.50;;;16.20;99.90;;;;;;5088519;28;20032;-45
2023/08/01 04:49:34;;;;;;;3.63;2.70;;;16.10;99.90;;;;;;5088353;28;20027;-48
2023/08/01 04:52:00;;;;;;;3.53;2.58;;;16.10;99.90;;;;;;5088347;28;20027;-45
2023/08/01 04:54:25;;;;;;;5.75;2.70;;;16.10;99.90;;;;;;5087990;28;20027;-45
2023/08/01 04:56:51;;;;;;;2.38;2.17;;;16.10;99.90;;;;;;5088374;28;20380;-45
2023/08/01 04:59:16;;;;;;;3.17;2.20;;;16.10;99.90;;;;;;5088111;28;20043;-46
2023/08/01 05:01:42;;;;;;;3.80;2.65;;;16.10;99.90;;;;;;5088185;28;20016;-46
2023/08/01 05:04:07;;;;;;;4.60;2.60;;;16.10;99.90;;;;;;5090958;28;20055;-46
2023/08/01 05:06:33;;;;;;;3.40;2.80;;;16.10;99.90;;;;;;5091630;28;20103;-48
2023/08/01 05:08:58;;;;;;;3.08;2.22;;;16.10;99.90;;;;;;5091471;28;20077;-45
2023/08/01 05:11:24;;;;;;;3.00;2.35;;;16.20;99.90;;;;;;5091923;28;20313;-45
2023/08/01 05:13:49;;;;;;;2.95;2.65;;;16.20;99.90;;;;;;5091937;28;20190;-44
2023/08/01 05:16:15;;;;;;;3.33;2.38;;;16.30;99.90;;;;;;5092225;28;20050;-46
2023/08/01 05:18:40;;;;;;;3.13;2.58;;;16.30;99.90;;;;;;5091620;28;20027;-45
2023/08/01 05:21:06;;;;;;;4.50;2.50;;;16.30;99.90;;;;;;5092194;28;20032;-47
2023/08/01 05:23:31;;;;;;;3.28;2.63;;;16.30;99.90;;;;;;5091921;28;20393;-44
2023/08/01 05:25:57;;;;;;;4.20;2.45;;;16.40;99.90;;;;;;5073398;28;20020;-47
2023/08/01 05:28:22;;;;;;;5.30;2.70;;;16.40;99.90;;;;;;5071712;28;20529;-44
2023/08/01 05:30:48;;;;;;;4.40;2.45;;;16.40;99.90;;;;;;5073570;28;20032;-45
2023/08/01 05:33:14;;;;;;;3.83;2.30;;;16.40;99.90;;;;;;5090379;28;20032;-44
2023/08/01 05:35:39;;;;;;;2.45;1.92;;;16.50;99.90;;;;;;5090195;28;20388;-44
2023/08/01 05:38:05;;;;;;;4.28;2.00;;;16.50;99.90;;;;;;5090820;28;20065;-44
2023/08/01 05:40:30;;;;;;;2.17;1.90;;;16.50;99.90;;;;;;5090789;28;20039;-45
2023/08/01 05:42:56;;;;;;;3.35;1.92;;;16.50;99.90;;;;;;5091722;28;20076;-46
2023/08/01 05:45:21;;;;;;;3.10;1.55;;;16.50;99.90;;;;;;5090718;28;20024;-47
2023/08/01 05:47:47;;;;;;;2.30;1.60;;;16.50;99.90;;;;;;5073337;28;20046;-45
2023/08/01 05:50:12;;;;;;;3.00;1.60;;;16.60;99.90;;;;;;5090450;28;20074;-44
2023/08/01 05:52:38;;;;;;;2.80;1.58;;;16.50;99.90;;;;;;5089773;28;20464;-46
2023/08/01 05:55:04;;;;;;;4.28;1.45;;;16.60;99.90;;;;;;5090562;28;20447;-44
2023/08/01 05:57:30;;;;;;;1.95;1.42;;;16.50;99.90;;;;;;5072378;28;20028;-44
2023/08/01 05:59:55;;;;;;;4.72;1.75;;;16.50;99.90;;;;;;5090717;28;20020;-44
2023/08/01 06:02:21;;;;;;;1.60;1.48;;;16.60;99.90;;;;;;5090381;28;20035;-45
2023/08/01 06:04:46;;;;;;;1.65;1.30;;;16.60;99.90;;;;;;5090984;28;20028;-44
2023/08/01 06:07:12;;;;;;;8.65;1.55;;;16.60;99.90;;;;;;5090907;28;20392;-44
2023/08/01 06:09:37;;;;;;;1.73;1.23;;;16.60;99.90;;;;;;5090088;28;20028;-46
2023/08/01 06:12:03;;;;;;;1.70;1.10;;;16.60;99.90;;;;;;5088704;28;20020;-46
2023/08/01 06:14:29;;;;;;;2.65;1.20;;;16.60;99.90;;;;;;5089186;28;20055;-44
2023/08/01 06:16:54;;;;;;;1.15;1.05;;;16.60;99.90;;;;;;5089991;28;20024;-45
2023/08/01 06:19:20;;;;;;;2.90;1.20;;;16.60;99.90;;;;;;5090364;28;20059;-43
2023/08/01 06:21:45;;;;;;;4.70;1.10;;;16.60;99.90;;;;;;5082371;28;20055;-45
2023/08/01 06:24:11;;;;;;;2.42;0.95;;;16.60;99.90;;;;;;5089512;28;20032;-47
2023/08/01 06:26:36;;;;;;;1.40;1.00;;;16.50;99.90;;;;;;5094198;28;20278;-45
2023/08/01 06:29:02;;;;;;;1.30;0.90;;;16.50;99.90;;;;;;5090429;28;20061;-44
2023/08/01 06:31:27;;;;;;;1.40;1.00;;;16.50;99.90;;;;;;5089917;28;20036;-47
2023/08/01 06:33:53;;;;;;;2.30;1.10;;;16.40;99.90;;;;;;5089664;28;20032;-44
2023/08/01 06:36:18;;;;;;;1.50;1.40;;;16.40;99.90;;;;;;5090025;28;20039;-46
2023/08/01 06:38:44;;;;;;;1.10;1.00;;;16.40;99.90;;;;;;5090133;28;20020;-46
2023/08/01 06:41:09;;;;;;;2.92;1.40;;;16.40;99.90;;;;;;5090143;28;20035;-45
2023/08/01 06:43:38;;;;;;;2.17;1.55;;;16.40;99.90;;;;;;5090121;28;20498;-44
2023/08/01 06:46:04;;;;;;;1.95;1.20;;;16.40;99.90;;;;;;5089828;28;20028;-44
2023/08/01 06:48:29;;;;;;;1.60;1.50;;;16.30;99.90;;;;;;5090262;28;20035;-46
2023/08/01 06:50:55;;;;;;;1.85;1.35;;;16.30;99.90;;;;;;5089946;28;20435;-44
2023/08/01 06:53:21;;;;;;;1.90;1.38;;;16.30;99.90;;;;;;5071709;28;20489;-44
2023/08/01 06:55:46;;;;;;;2.15;1.48;;;16.30;99.90;;;;;;5089840;28;20031;-44
2023/08/01 06:58:12;;;;;;;1.83;1.30;;;16.20;99.90;;;;;;5090254;28;20032;-46
2023/08/01 07:00:37;;;;;;;3.20;1.50;;;16.20;99.90;;;;;;5071996;28;20024;-44
2023/08/01 07:03:03;;;;;;;2.95;1.48;;;16.20;99.90;;;;;;5089632;28;20024;-44
2023/08/01 07:05:29;;;;;;;1.75;1.65;;;16.20;99.90;;;;;;5089714;28;20028;-45
2023/08/01 07:07:54;;;;;;;1.42;1.33;;;16.20;99.90;;;;;;5090320;28;20050;-44
2023/08/01 07:10:21;;;;;;;2.47;1.65;;;16.20;99.90;;;;;;5092479;28;20035;-44
2023/08/01 07:12:46;;;;;;;2.25;1.90;;;16.20;99.90;;;;;;5088867;28;20020;-45
2023/08/01 07:15:12;;;;;;;5.07;1.85;;;16.30;99.90;;;;;;5089712;28;20366;-45
2023/08/01 07:17:38;;;;;;;4.28;1.90;;;16.30;99.90;;;;;;5089296;28;20070;-44
2023/08/01 07:20:04;;;;;;;3.20;2.53;;;16.40;99.90;;;;;;5095141;28;20024;-44
2023/08/01 07:22:29;;;;;;;2.42;2.05;;;16.50;99.90;;;;;;5089761;28;20469;-44
2023/08/01 07:24:55;;;;;;;4.50;1.45;;;16.50;99.90;;;;;;5088118;28;20016;-45
2023/08/01 07:27:21;;;;;;;7.43;2.40;;;16.50;99.90;;;;;;5089057;28;20075;-44
2023/08/01 07:29:47;;;;;;;1.85;1.50;;;16.70;99.90;;;;;;5089146;28;20163;-44
2023/08/01 07:32:12;;;;;;;1.73;1.60;;;16.80;99.90;;;;;;5088691;28;20623;-44
2023/08/01 07:34:38;;;;;;;3.50;2.08;;;16.90;99.90;;;;;;5088922;28;20085;-44
2023/08/01 07:37:03;;;;;;;2.33;1.85;;;16.90;99.90;;;;;;5089240;28;20103;-45
2023/08/01 07:39:29;;;;;;;4.80;2.55;;;16.90;99.90;;;;;;5089472;28;20032;-44
2023/08/01 07:41:55;;;;;;;2.60;2.05;;;16.80;99.90;;;;;;5089375;28;20150;-44
2023/08/01 07:44:21;;;;;;;4.63;3.20;;;16.80;99.90;;;;;;5088677;28;20097;-45
2023/08/01 07:46:47;;;;;;;3.17;2.38;;;16.80;99.90;;;;;;5088736;28;20492;-44
2023/08/01 07:49:12;;;;;;;5.75;2.67;;;16.80;99.90;;;;;;5089201;28;20036;-45
2023/08/01 07:51:38;;;;;;;3.33;2.83;;;16.70;99.90;;;;;;5089198;28;20036;-44
2023/08/01 07:54:03;;;;;;;3.47;2.75;;;16.70;99.90;;;;;;5088753;28;20032;-44
2023/08/01 07:56:29;;;;;;;3.65;2.80;;;16.70;99.90;;;;;;5089051;28;20028;-44
2023/08/01 07:58:54;;;;;;;4.82;2.88;;;16.70;99.90;;;;;;5089153;28;20027;-46
2023/08/01 08:01:20;;;;;;;6.03;3.22;;;16.80;99.90;;;;;;5088967;28;20024;-47
2023/08/01 08:03:45;;;;;;;6.03;2.78;;;16.90;99.90;;;;;;5088876;28;20428;-45
2023/08/01 08:06:11;;;;;;;6.55;3.50;;;16.90;99.90;;;;;;5088968;28;20104;-44
2023/08/01 08:08:36;;;;;;;4.45;2.83;;;17.00;99.90;;;;;;5070643;28;20031;-45
2023/08/01 08:11:03;;;;;;;4.03;3.10;;;17.00;99.90;;;;;;5088843;28;20126;-45
2023/08/01 08:13:28;;;;;;;4.97;3.67;;;17.00;99.90;;;;;;5088750;28;20222;-44
2023/08/01 08:15:57;;;;;;;5.40;3.25;;;17.00;99.90;;;;;;5088702;28;20096;-44
2023/08/01 08:18:23;;;;;;;4.38;3.03;;;17.00;99.90;;;;;;5089110;28;20059;-44
2023/08/01 08:20:48;;;;;;;11.63;6.78;;;17.10;99.90;;;;;;5089283;28;20048;-45
2023/08/01 08:23:14;;;;;;;7.47;4.30;;;17.20;99.90;;;;;;5088482;28;20028;-45
2023/08/01 08:25:41;;;;;;;8.93;3.20;;;17.30;99.90;;;;;;5088605;28;20020;-45
2023/08/01 08:28:07;;;;;;;6.80;3.45;;;17.30;99.90;;;;;;5088710;28;20458;-44
2023/08/01 08:30:33;;;;;;;5.72;3.40;;;17.40;99.90;;;;;;5071001;28;20047;-45
2023/08/01 08:33:03;;;;;;;6.53;3.72;;;17.60;99.90;;;;;;5088744;28;20527;-44
2023/08/01 08:35:29;;;;;;;;;;;17.70;99.90;;;;;;5088994;28;20074;-44
2023/08/01 08:37:58;;;;;;;5.22;3.90;;;17.80;99.90;;;;;;5092293;28;20207;-45
2023/08/01 08:40:24;;;;;;;7.13;3.72;;;17.90;99.90;;;;;;5074671;28;20111;-46
2023/08/01 08:42:52;;;;;;;8.15;5.22;;;18.10;99.90;;;;;;5092598;28;20111;-45
2023/08/01 08:45:19;;;;;;;9.85;5.70;;;18.20;99.90;;;;;;5074286;28;20497;-46
2023/08/01 08:47:48;;;;;;;10.70;5.15;;;18.30;99.90;;;;;;5092552;28;20096;-44
2023/08/01 08:50:14;;;;;;;11.30;5.32;;;18.30;99.90;;;;;;5092860;28;20042;-44
2023/08/01 08:52:40;;;;;;;11.52;5.25;;;18.40;99.90;;;;;;5092644;28;20038;-44
2023/08/01 08:55:07;;;;;;;8.15;6.05;;;18.40;99.90;;;;;;5092891;28;20035;-44
2023/08/01 08:57:33;;;;;;;10.13;5.47;;;18.50;99.90;;;;;;5074605;28;20552;-46
2023/08/01 09:00:00;;;;;;;8.55;6.43;;;18.60;99.90;;;;;;5074622;28;20024;-45
2023/08/01 09:02:27;;;;;;;10.57;6.50;;;18.90;99.90;;;;;;5091209;28;20015;-44
2023/08/01 09:04:52;;;;;;;11.55;5.60;;;19.30;99.90;;;;;;5085443;28;20024;-44
2023/08/01 09:07:23;;;;;;;10.05;5.20;;;19.60;99.90;;;;;;5073433;28;20078;-44
2023/08/01 09:09:48;;;;;;;9.88;5.18;;;19.40;99.90;;;;;;5091876;28;20460;-44
2023/08/01 09:12:14;;;;;;;11.57;6.30;;;19.40;99.90;;;;;;5091192;28;20032;-43
2023/08/01 09:14:41;;;;;;;10.68;5.28;;;20.10;99.90;;;;;;5091019;28;20022;-45
2023/08/01 09:17:10;;;;;;;6.35;4.78;;;20.30;99.90;;;;;;5091288;28;20023;-45
2023/08/01 09:19:35;;;;;;;10.75;5.07;;;21.00;99.90;;;;;;5072576;28;20045;-45
2023/08/01 09:22:09;;;;;;;11.40;5.05;;;21.90;99.90;;;;;;5089206;28;20245;-44
2023/08/01 09:24:35;;;;;;;8.85;4.00;;;22.50;99.90;;;;;;5090653;28;20223;-45
2023/08/01 09:27:04;;;;;;;6.65;4.47;;;22.80;99.90;;;;;;5072388;28;20032;-44
2023/08/01 09:29:31;;;;;;;10.47;4.27;;;23.30;99.90;;;;;;5090772;28;20103;-44
2023/08/01 09:31:57;;;;;;;11.13;4.47;;;23.60;99.90;;;;;;5090870;28;20019;-45
2023/08/01 09:34:25;;;;;;;7.93;4.65;;;23.60;99.90;;;;;;5072333;28;20024;-45
2023/08/01 09:36:57;;;;;;;6.63;4.28;;;23.80;99.90;;;;;;5090583;28;20024;-44
2023/08/01 09:39:22;;;;;;;8.27;4.57;;;24.50;99.90;;;;;;5072079;28;20028;-44
2023/08/01 09:41:58;;;;;;;7.03;4.22;;;24.90;99.90;;;;;;5090176;28;20369;-44
2023/08/01 09:44:26;;;;;;;7.72;3.75;;;24.90;99.90;;;;;;5090032;28;20024;-44
2023/08/01 09:47:03;;;;;;;5.80;3.28;;;25.20;99.90;;;;;;5090109;28;20082;-44
2023/08/01 09:49:29;;;;;;;7.10;3.55;;;26.10;99.90;;;;;;5089579;28;20056;-44
2023/08/01 09:51:55;;;;;;;12.10;3.97;;;26.90;98.50;;;;;;5089956;28;20111;-44
2023/08/01 09:54:21;;;;;;;5.70;3.42;;;27.20;97.70;;;;;;5090082;28;20364;-44
2023/08/01 09:56:50;;;;;;;6.25;3.67;;;26.40;97.90;;;;;;5090274;28;20028;-44
2023/08/01 09:59:24;;;;;;;6.43;3.42;;;25.30;97.70;;;;;;5090092;28;20017;-46
2023/08/01 10:01:52;;;;;;;6.00;3.63;;;24.30;98.50;;;;;;5090059;28;20358;-43
2023/08/01 10:04:31;;;;;;;6.72;3.95;;;23.80;99.90;;;;;;5089602;28;20028;-44
2023/08/01 10:07:11;;;;;;;9.45;4.38;;;23.20;99.90;;;;;;5071926;28;20054;-44
2023/08/01 10:09:37;;;;;;;6.07;3.85;;;22.50;99.90;;;;;;5071681;28;20020;-43
2023/08/01 10:12:05;;;;;;;8.57;4.28;;;22.00;99.90;;;;;;5090059;28;20603;-44
2023/08/01 10:14:32;;;;;;;6.38;3.78;;;21.60;99.90;;;;;;5089098;28;20481;-43
2023/08/01 10:16:58;;;;;;;6.38;3.22;;;22.10;99.90;;;;;;5089680;28;20081;-44
2023/08/01 10:19:25;;;;;;;8.75;3.22;;;23.60;99.90;;;;;;5089695;28;20028;-44
2023/08/01 10:21:51;;;;;;;6.55;2.35;;;25.50;99.90;;;;;;5087937;28;20461;-44
2023/08/01 10:24:18;;;;;;;4.97;2.40;;;26.80;96.30;;;;;;5089169;28;20381;-44
2023/08/01 10:26:47;;;;;;;4.35;2.38;;;27.30;95.00;;;;;;5069914;28;20028;-46
2023/08/01 10:29:12;;;;;;;7.40;2.40;;;26.80;92.60;;;;;;5093917;28;20024;-44
2023/08/01 10:31:38;;;;;;;3.90;2.28;;;26.20;93.00;;;;;;5097846;28;20028;-44
2023/08/01 10:34:06;;;;;;;4.40;2.40;;;25.30;94.90;;;;;;5088507;28;20028;-44
2023/08/01 10:36:32;;;;;;;4.55;2.28;;;25.60;95.00;;;;;;5086381;28;20218;-46
2023/08/01 10:39:00;;;;;;;3.80;2.40;;;25.80;93.30;;;;;;5087484;28;20016;-44
2023/08/01 10:41:33;;;;;;;3.80;2.33;;;25.80;93.50;;;;;;5089366;28;20051;-45
2023/08/01 10:44:13;;;;;;;3.13;2.17;;;25.80;93.30;;;;;;5088963;28;20028;-44
2023/08/01 10:47:05;;;;;;;4.38;2.45;;;25.10;94.40;;;;;;5070541;28;20550;-44
2023/08/01 10:49:33;;;;;;;4.70;2.95;;;24.90;94.80;;;;;;5084558;28;20114;-44
2023/08/01 10:51:59;;;;;;;5.95;2.20;;;26.50;94.40;;;;;;5088944;28;20096;-43
2023/08/01 10:54:26;;;;;;;3.85;2.17;;;27.00;91.80;;;;;;5088701;28;20027;-45
2023/08/01 10:56:55;;;;;;;3.40;2.40;;;27.40;89.70;;;;;;5088240;28;20036;-47
2023/08/01 10:59:22;;;;;;;4.65;2.10;;;26.70;91.40;;;;;;5088233;28;20024;-45
2023/08/01 11:01:49;;;;;;;7.18;2.38;;;25.60;92.10;;;;;;5096230;28;20517;-44
2023/08/01 11:04:19;;;;;;;3.92;2.35;;;26.60;93.60;;;;;;5088421;28;20093;-47
2023/08/01 11:06:57;;;;;;;5.20;2.50;;;27.80;91.00;;;;;;5088957;28;20024;-45
2023/08/01 11:09:25;;;;;;;9.27;2.40;;;28.70;91.10;;;;;;5088946;28;20024;-48
2023/08/01 11:11:54;;;;;;;4.32;2.15;;;29.70;88.00;;;;;;5088057;28;20024;-48
2023/08/01 11:14:22;;;;;;;5.47;2.22;;;30.30;88.50;;;;;;5088217;28;20040;-48
2023/08/01 11:16:48;;;;;;;2.83;1.80;;;30.00;85.50;;;;;;5088337;28;20533;-44
2023/08/01 11:19:19;;;;;;;4.00;1.85;;;29.50;86.00;;;;;;5088295;28;20082;-46
2023/08/01 11:21:44;;;;;;;1.88;1.77;;;29.20;86.20;;;;;;5087185;28;20562;-45
2023/08/01 11:24:10;;;;;;;4.57;1.50;;;30.00;80.00;;;;;;5069379;28;20040;-44
2023/08/01 11:26:39;;;;;;;3.63;1.77;;;30.00;79.00;;;;;;5088392;28;20349;-44
2023/08/01 11:29:05;;;;;;;4.57;1.67;;;29.10;81.00;;;;;;5085677;28;20023;-45
2023/08/01 11:31:31;;;;;;;3.85;2.00;;;27.80;81.20;;;;;;5088401;28;20028;-46
2023/08/01 11:33:59;;;;;;;6.10;1.98;;;26.40;84.10;;;;;;5087426;28;20043;-46
2023/08/01 11:36:27;;;;;;;1.55;1.42;;;25.70;88.70;;;;;;5089242;28;20121;-44
2023/08/01 11:38:53;;;;;;;3.63;2.13;;;24.90;89.10;;;;;;5088167;28;20455;-45
2023/08/01 11:41:19;;;;;;;6.30;2.08;;;24.30;91.00;;;;;;5088358;28;20067;-45
2023/08/01 11:43:45;;;;;;;2.20;1.85;;;25.50;90.30;;;;;;5088031;28;20051;-43
2023/08/01 11:46:10;;;;;;;3.83;1.80;;;26.80;89.60;;;;;;5088183;28;20028;-45
2023/08/01 11:48:36;;;;;;;3.85;1.70;;;27.80;85.10;;;;;;5070063;28;20111;-44
2023/08/01 11:51:02;;;;;;;2.67;1.30;;;29.00;85.30;;;;;;5088164;28;20161;-44
2023/08/01 11:53:29;;;;;;;2.72;1.48;;;29.00;80.20;;;;;;5088221;28;20397;-46
2023/08/01 11:55:56;;;;;;;3.00;1.15;;;27.90;81.80;;;;;;5088134;28;20339;-45
2023/08/01 11:58:36;;;;;;;5.50;2.00;;;26.90;82.90;;;;;;5088330;28;20066;-46
2023/08/01 12:01:04;;;;;;;3.95;1.70;;;25.50;90.40;;;;;;5088238;28;20082;-45
2023/08/01 12:03:29;;;;;;;5.70;2.47;;;24.20;94.50;;;;;;5087292;28;20028;-46
2023/08/01 12:06:07;;;;;;;4.88;2.67;;;22.60;98.70;;;;;;5088339;28;20035;-45
2023/08/01 12:08:33;;;;;;;6.43;2.30;;;21.70;99.90;;;;;;5087620;28;20024;-48
2023/08/01 12:10:59;;;;;;;3.97;2.20;;;21.20;99.90;;;;;;5087329;28;20434;-44
2023/08/01 12:13:25;;;;;;;3.75;2.60;;;20.50;99.90;;;;;;5087496;28;20121;-44
2023/08/01 12:15:53;;;;;;;5.43;2.60;;;20.20;99.90;;;;;;5087394;28;20020;-46
2023/08/01 12:18:27;;;;;;;5.55;2.72;;;20.00;99.90;;;;;;5087813;28;20028;-48
2023/08/01 12:20:53;;;;;;;5.32;2.47;;;20.20;99.90;;;;;;5069596;28;20030;-44
2023/08/01 12:23:19;;;;;;;3.13;1.80;;;20.80;99.90;;;;;;5085686;28;20028;-45
2023/08/01 12:25:46;;;;;;;2.15;1.70;;;21.40;99.90;;;;;;5087350;28;20031;-46
2023/08/01 12:28:14;;;;;;;3.95;1.90;;;21.80;99.90;;;;;;5088176;28;20028;-47
2023/08/01 12:30:43;;;;;;;2.58;1.40;;;22.20;99.90;;;;;;5086577;28;20776;-44
2023/08/01 12:33:09;;;;;;;4.70;1.50;;;22.50;99.90;;;;;;5084361;28;20036;-45
2023/08/01 12:35:39;;;;;;;3.42;1.27;;;22.10;99.90;;;;;;5086672;28;20026;-43
2023/08/01 12:38:04;;;;;;;3.20;1.40;;;21.80;99.90;;;;;;5086060;28;20574;-44
2023/08/01 12:40:30;;;;;;;3.72;1.38;;;22.20;99.90;;;;;;5086338;28;20028;-48
2023/08/01 12:42:55;;;;;;;6.13;1.88;;;22.10;99.90;;;;;;5086763;28;20028;-45
2023/08/01 12:45:21;;;;;;;3.22;1.75;;;21.90;99.90;;;;;;5086527;28;20028;-44